createdAt,value
2022-11-17T00:01:20.974Z,-0.66
2022-11-17T00:04:08.507Z,-0.67
2022-11-17T00:06:56.987Z,-0.67
2022-11-17T00:09:44.436Z,-0.65
2022-11-17T00:12:50.468Z,-0.66
2022-11-17T00:15:37.928Z,-0.72
2022-11-17T00:18:43.944Z,-0.73
2022-11-17T00:21:31.849Z,-0.74
2022-11-17T00:24:19.194Z,-0.75
2022-11-17T00:27:06.614Z,-0.75
2022-11-17T00:29:54.004Z,-0.74
2022-11-17T00:33:00.196Z,-0.73
2022-11-17T00:35:54.213Z,-0.74
2022-11-17T00:38:41.632Z,-0.77
2022-11-17T00:41:29.075Z,-0.77
2022-11-17T00:44:16.499Z,-0.78
2022-11-17T00:47:03.868Z,-0.80
2022-11-17T00:49:51.257Z,-0.79
2022-11-17T00:52:38.620Z,-0.75
2022-11-17T00:55:26.205Z,-0.73
2022-11-17T00:58:13.615Z,-0.75
2022-11-17T01:01:01.364Z,-0.73
2022-11-17T01:03:48.847Z,-0.71
2022-11-17T01:06:37.958Z,-0.69
2022-11-17T01:09:25.402Z,-0.69
2022-11-17T01:12:12.820Z,-0.67
2022-11-17T01:15:00.161Z,-0.66
2022-11-17T01:17:47.567Z,-0.66
2022-11-17T01:20:34.955Z,-0.66
2022-11-17T01:23:22.375Z,-0.64
2022-11-17T01:26:11.511Z,-0.60
2022-11-17T01:28:59.666Z,-0.59
2022-11-17T01:31:49.851Z,-0.59
2022-11-17T01:34:37.200Z,-0.56
2022-11-17T01:37:24.594Z,-0.53
2022-11-17T01:40:13.480Z,-0.51
2022-11-17T01:43:00.827Z,-0.49
2022-11-17T01:45:48.378Z,-0.51
2022-11-17T01:48:35.770Z,-0.52
2022-11-17T01:51:23.545Z,-0.52
2022-11-17T01:54:13.247Z,-0.48
2022-11-17T01:57:04.057Z,-0.41
2022-11-17T01:59:54.191Z,-0.41
2022-11-17T02:02:42.631Z,-0.44
2022-11-17T02:05:38.295Z,-0.44
2022-11-17T02:08:28.033Z,-0.40
2022-11-17T02:11:17.716Z,-0.36
2022-11-17T02:14:05.487Z,-0.35
2022-11-17T02:16:52.844Z,-0.33
2022-11-17T02:19:41.058Z,-0.36
2022-11-17T02:22:47.294Z,-0.40
2022-11-17T02:25:34.667Z,-0.39
2022-11-17T02:28:25.037Z,-0.41
2022-11-17T02:31:15.380Z,-0.43
2022-11-17T02:34:22.737Z,-0.41
2022-11-17T02:37:17.731Z,-0.40
2022-11-17T02:40:16.299Z,-0.39
2022-11-17T02:43:26.417Z,-0.40
2022-11-17T02:46:20.019Z,-0.46
2022-11-17T02:49:12.345Z,-0.50
2022-11-17T02:52:00.418Z,-0.47
2022-11-17T02:54:47.777Z,-0.41
2022-11-17T02:57:36.303Z,-0.42
2022-11-17T03:00:23.818Z,-0.45
2022-11-17T03:03:27.013Z,-0.44
2022-11-17T03:06:22.327Z,-0.43
2022-11-17T03:09:21.592Z,-0.38
2022-11-17T03:12:08.932Z,-0.32
2022-11-17T03:15:11.695Z,-0.29
2022-11-17T03:17:59.627Z,-0.31
2022-11-17T03:20:57.453Z,-0.30
2022-11-17T03:23:54.771Z,-0.34
2022-11-17T03:26:45.045Z,-0.34
2022-11-17T03:29:34.161Z,-0.33
2022-11-17T03:32:23.475Z,-0.36
2022-11-17T03:35:17.109Z,-0.36
2022-11-17T03:38:08.018Z,-0.42
2022-11-17T03:40:57.908Z,-0.47
2022-11-17T03:43:48.560Z,-0.44
2022-11-17T03:46:38.416Z,-0.36
2022-11-17T03:49:44.964Z,-0.30
2022-11-17T03:52:33.415Z,-0.18
2022-11-17T03:55:26.825Z,-0.10
2022-11-17T03:58:16.960Z,-0.04
2022-11-17T04:01:05.782Z,-0.02
2022-11-17T04:03:53.317Z,-0.01
2022-11-17T04:06:40.729Z,0.02
2022-11-17T04:09:28.109Z,0.04
2022-11-17T04:12:33.957Z,0.04
2022-11-17T04:15:39.756Z,0.02
2022-11-17T04:18:27.292Z,0.03
2022-11-17T04:21:14.732Z,0.03
2022-11-17T04:24:02.156Z,0.07
2022-11-17T04:27:08.203Z,0.11
2022-11-17T04:29:55.646Z,0.17
2022-11-17T04:32:43.241Z,0.17
2022-11-17T04:35:31.017Z,0.20
2022-11-17T04:48:11.181Z,0.13
2022-11-17T04:50:59.040Z,0.14
2022-11-17T04:53:47.336Z,0.15
2022-11-17T04:56:35.390Z,0.18
2022-11-17T04:59:23.558Z,0.21
2022-11-17T05:02:11.358Z,0.25
2022-11-17T05:04:59.522Z,0.29
2022-11-17T05:07:47.331Z,0.28
2022-11-17T05:10:53.777Z,0.23
2022-11-17T05:13:41.482Z,0.22
2022-11-17T05:16:48.417Z,0.24
2022-11-17T05:19:37.682Z,0.17
2022-11-17T05:22:44.746Z,0.13
2022-11-17T05:25:32.703Z,0.08
2022-11-17T05:28:20.611Z,0.04
2022-11-17T05:31:09.416Z,-0.07
2022-11-17T05:33:58.033Z,-0.09
2022-11-17T05:36:46.321Z,-0.03
2022-11-17T05:39:34.304Z,0.10
2022-11-17T05:42:24.620Z,0.18
2022-11-17T05:45:17.957Z,0.23
2022-11-17T05:48:06.041Z,0.16
2022-11-17T05:50:54.636Z,0.15
2022-11-17T05:53:42.496Z,0.16
2022-11-17T05:56:32.237Z,0.16
2022-11-17T05:59:39.528Z,0.18
2022-11-17T06:02:33.064Z,0.15
2022-11-17T06:05:25.689Z,0.15
2022-11-17T06:08:14.550Z,0.14
2022-11-17T06:11:02.620Z,0.14
2022-11-17T06:13:50.849Z,0.09
2022-11-17T06:16:41.710Z,0.03
2022-11-17T06:19:33.619Z,-0.01
2022-11-17T06:22:21.732Z,-0.02
2022-11-17T06:25:12.365Z,-0.05
2022-11-17T06:28:05.034Z,-0.06
2022-11-17T06:30:54.278Z,-0.09
2022-11-17T06:33:43.049Z,-0.11
2022-11-17T06:36:32.427Z,-0.13
2022-11-17T06:39:20.546Z,-0.17
2022-11-17T06:42:08.954Z,-0.18
2022-11-17T06:44:57.199Z,-0.19
2022-11-17T06:47:45.341Z,-0.22
2022-11-17T06:50:35.173Z,-0.22
2022-11-17T06:53:23.729Z,-0.26
2022-11-17T06:56:14.084Z,-0.28
2022-11-17T06:59:07.563Z,-0.25
2022-11-17T07:01:58.384Z,-0.25
2022-11-17T07:04:48.157Z,-0.21
2022-11-17T07:07:37.445Z,-0.21
2022-11-17T07:10:25.826Z,-0.20
2022-11-17T07:13:16.353Z,-0.24
2022-11-17T07:16:05.940Z,-0.22
2022-11-17T07:18:53.834Z,-0.15
2022-11-17T07:21:41.901Z,-0.11
2022-11-17T07:24:29.882Z,-0.14
2022-11-17T07:27:17.806Z,-0.16
2022-11-17T07:30:06.045Z,-0.15
2022-11-17T07:32:54.976Z,-0.13
2022-11-17T07:35:43.045Z,-0.11
2022-11-17T07:38:35.716Z,-0.03
2022-11-17T07:41:24.166Z,0.05
2022-11-17T07:44:12.569Z,0.04
2022-11-17T07:47:01.331Z,0.12
2022-11-17T07:49:51.506Z,0.11
2022-11-17T07:52:41.645Z,0.13
2022-11-17T07:55:29.843Z,0.08
2022-11-17T07:58:17.876Z,0.07
2022-11-17T08:01:15.734Z,0.06
2022-11-17T08:04:05.864Z,0.03
2022-11-17T08:06:53.951Z,-0.03
2022-11-17T08:09:47.841Z,0.00
2022-11-17T08:12:36.071Z,0.19
2022-11-17T08:15:24.475Z,0.31
2022-11-17T08:18:13.176Z,0.35
2022-11-17T08:21:08.061Z,0.36
2022-11-17T08:23:56.596Z,0.41
2022-11-17T08:26:44.613Z,0.49
2022-11-17T08:29:34.798Z,0.48
2022-11-17T08:32:28.590Z,0.56
2022-11-17T08:35:17.494Z,0.57
2022-11-17T08:38:08.323Z,0.61
2022-11-17T08:40:56.960Z,0.67
2022-11-17T08:43:44.852Z,0.81
2022-11-17T08:46:36.359Z,0.92
2022-11-17T08:49:24.357Z,0.98
2022-11-17T08:55:14.095Z,1.01
2022-11-17T08:58:02.193Z,1.01
2022-11-17T09:00:50.329Z,0.99
2022-11-17T09:03:38.909Z,0.90
2022-11-17T09:06:29.217Z,0.89
2022-11-17T09:09:17.508Z,0.91
2022-11-17T09:12:05.638Z,0.88
2022-11-17T09:14:53.815Z,0.75
2022-11-17T09:17:43.818Z,0.63
2022-11-17T09:20:32.204Z,0.53
2022-11-17T09:23:19.974Z,0.43
2022-11-17T09:26:12.528Z,0.34
2022-11-17T09:29:06.652Z,0.31
2022-11-17T09:31:55.649Z,0.39
2022-11-17T09:34:44.443Z,0.59
2022-11-17T09:37:33.688Z,0.89
2022-11-17T09:40:25.314Z,1.28
2022-11-17T09:43:27.414Z,1.65
2022-11-17T09:46:20.559Z,1.89
2022-11-17T09:49:14.578Z,1.99
2022-11-17T09:52:07.225Z,2.01
2022-11-17T09:54:57.069Z,1.89
2022-11-17T09:57:50.864Z,1.75
2022-11-17T10:00:40.722Z,1.69
2022-11-17T10:03:32.120Z,1.65
2022-11-17T10:06:21.669Z,1.60
2022-11-17T10:09:25.178Z,1.55
2022-11-17T10:12:21.179Z,1.48
2022-11-17T10:15:34.060Z,1.38
2022-11-17T10:18:22.057Z,1.32
2022-11-17T10:21:11.657Z,1.24
2022-11-17T10:23:59.881Z,1.21
2022-11-17T10:26:49.189Z,1.26
2022-11-17T10:29:37.361Z,1.18
2022-11-17T10:32:26.196Z,1.13
2022-11-17T10:35:19.324Z,1.06
2022-11-17T10:38:18.167Z,1.03
2022-11-17T10:41:13.768Z,1.04
2022-11-17T10:44:03.958Z,1.15
2022-11-17T10:47:01.753Z,1.24
2022-11-17T10:50:05.535Z,1.24
2022-11-17T10:52:55.690Z,1.17
2022-11-17T10:55:46.345Z,1.10
2022-11-17T10:58:55.842Z,1.09
2022-11-17T11:01:45.517Z,1.18
2022-11-17T11:04:39.613Z,1.24
2022-11-17T11:07:28.501Z,1.27
2022-11-17T11:10:30.079Z,1.25
2022-11-17T11:13:24.208Z,1.19
2022-11-17T11:16:12.454Z,1.08
2022-11-17T11:19:02.337Z,0.93
2022-11-17T11:21:53.481Z,0.82
2022-11-17T11:24:42.430Z,0.74
2022-11-17T11:27:36.609Z,0.66
2022-11-17T11:30:25.142Z,0.61
2022-11-17T11:33:27.912Z,0.61
2022-11-17T11:36:24.705Z,0.67
2022-11-17T11:39:31.880Z,0.64
2022-11-17T11:42:24.965Z,0.58
2022-11-17T11:45:42.699Z,0.53
2022-11-17T11:48:50.333Z,0.51
2022-11-17T11:51:39.576Z,0.50
2022-11-17T11:54:33.147Z,0.53
2022-11-17T11:57:31.470Z,0.58
2022-11-17T12:00:20.148Z,0.60
2022-11-17T12:03:26.630Z,0.62
2022-11-17T12:06:42.480Z,0.66
2022-11-17T12:09:38.649Z,0.58
2022-11-17T12:12:35.795Z,0.50
2022-11-17T12:15:23.640Z,0.36
2022-11-17T12:18:17.405Z,0.26
2022-11-17T12:21:11.801Z,0.16
2022-11-17T12:24:00.082Z,0.08
2022-11-17T12:26:48.059Z,0.04
2022-11-17T12:29:46.076Z,0.01
2022-11-17T12:32:52.938Z,-0.09
2022-11-17T12:35:43.975Z,-0.25
2022-11-17T12:38:32.007Z,-0.43
2022-11-17T12:41:38.687Z,-0.59
2022-11-17T12:44:34.129Z,-0.65
2022-11-17T12:47:23.576Z,-0.67
2022-11-17T12:50:18.218Z,-0.67
2022-11-17T12:53:19.313Z,-0.74
2022-11-17T12:56:12.746Z,-0.82
2022-11-17T12:59:15.865Z,-0.83
2022-11-17T13:02:26.913Z,-0.82
2022-11-17T13:05:24.104Z,-0.78
2022-11-17T13:08:20.340Z,-0.78
2022-11-17T13:11:17.543Z,-0.87
2022-11-17T13:14:14.110Z,-0.95
2022-11-17T13:17:03.068Z,-1.00
2022-11-17T13:20:03.053Z,-1.03
2022-11-17T13:23:06.813Z,-1.12
2022-11-17T13:26:11.741Z,-1.17
2022-11-17T13:29:05.643Z,-1.29
2022-11-17T13:32:13.192Z,-1.45
2022-11-17T13:35:01.892Z,-1.62
2022-11-17T13:38:21.997Z,-1.74
2022-11-17T13:41:14.468Z,-1.97
2022-11-17T13:44:03.302Z,-2.13
2022-11-17T13:46:51.398Z,-2.29
2022-11-17T13:49:39.837Z,-2.42
2022-11-17T13:52:40.555Z,-2.55
2022-11-17T14:04:23.006Z,-2.97
2022-11-17T14:07:12.217Z,-3.04
2022-11-17T14:10:18.742Z,-3.11
2022-11-17T14:13:06.407Z,-3.19
2022-11-17T14:15:56.182Z,-3.21
2022-11-17T14:18:43.592Z,-3.22
2022-11-17T14:21:31.871Z,-3.27
2022-11-17T14:24:19.238Z,-3.29
2022-11-17T14:27:33.256Z,-3.36
2022-11-17T14:30:20.721Z,-3.40
2022-11-17T14:33:13.416Z,-3.47
2022-11-17T14:36:01.282Z,-3.51
2022-11-17T14:38:48.808Z,-3.55
2022-11-17T14:41:36.294Z,-3.58
2022-11-17T14:44:23.903Z,-3.61
2022-11-17T14:47:11.498Z,-3.66
2022-11-17T14:49:58.880Z,-3.71
2022-11-17T14:52:46.446Z,-3.74
2022-11-17T14:55:34.074Z,-3.75
2022-11-17T14:58:21.562Z,-3.71
2022-11-17T15:01:16.038Z,-3.76
2022-11-17T15:04:27.308Z,-3.83
2022-11-17T15:07:12.490Z,-3.89
2022-11-17T15:10:00.248Z,-3.92
2022-11-17T15:12:47.726Z,-3.99
2022-11-17T15:15:35.155Z,-4.03
2022-11-17T15:38:37.976Z,-3.73
2022-11-17T15:42:08.071Z,-3.46
2022-11-17T16:23:34.965Z,-3.26
2022-11-17T16:27:13.273Z,-3.28
2022-11-17T16:30:35.704Z,-3.12
2022-11-17T17:20:13.260Z,-2.97
2022-11-17T17:23:22.096Z,-2.99
2022-11-17T17:26:14.826Z,-2.97
2022-11-17T17:29:06.949Z,-2.94
2022-11-17T17:31:55.716Z,-2.91
2022-11-17T17:34:47.697Z,-2.84
2022-11-17T17:37:36.503Z,-2.81
2022-11-17T17:40:25.644Z,-2.78
2022-11-17T17:43:14.407Z,-2.81
2022-11-17T17:46:12.826Z,-2.78
2022-11-17T17:49:04.102Z,-2.82
2022-11-17T17:51:52.323Z,-2.88
2022-11-17T17:54:42.943Z,-2.90
2022-11-17T17:57:33.899Z,-2.88
2022-11-17T18:00:22.119Z,-2.84
2022-11-17T18:07:54.364Z,-2.83
2022-11-17T18:10:41.784Z,-2.79
2022-11-17T18:13:30.126Z,-2.73
2022-11-17T18:20:07.592Z,-2.66
2022-11-17T18:22:57.667Z,-2.65
2022-11-17T18:25:48.147Z,-2.66
2022-11-17T18:28:36.072Z,-2.67
2022-11-17T18:31:25.342Z,-2.64
2022-11-17T18:34:21.627Z,-2.65
2022-11-17T18:37:09.333Z,-2.66
2022-11-17T18:39:56.686Z,-2.70
2022-11-17T18:42:44.031Z,-2.77
2022-11-17T18:45:31.444Z,-2.88
2022-11-17T18:48:18.833Z,-2.95
2022-11-17T18:51:22.527Z,-3.01
2022-11-17T18:54:10.867Z,-3.05
2022-11-17T18:57:00.146Z,-3.07
2022-11-17T18:59:47.652Z,-3.09
2022-11-17T19:02:35.398Z,-3.18
2022-11-17T19:05:22.793Z,-3.22
2022-11-17T19:08:10.127Z,-3.29
2022-11-17T19:10:59.816Z,-3.38
2022-11-17T19:13:50.833Z,-3.50
2022-11-17T19:16:44.477Z,-3.58
2022-11-17T19:19:32.405Z,-3.66
2022-11-17T19:22:20.154Z,-3.76
2022-11-17T19:25:07.710Z,-3.82
2022-11-17T19:27:55.071Z,-3.89
2022-11-17T19:30:42.666Z,-3.97
2022-11-17T19:33:30.919Z,-4.03
2022-11-17T19:36:36.483Z,-3.98
2022-11-17T19:39:23.865Z,-3.91
2022-11-17T19:42:12.274Z,-3.85
2022-11-17T19:44:59.678Z,-3.84
2022-11-17T19:47:47.086Z,-3.80
2022-11-17T19:50:34.474Z,-3.79
2022-11-17T19:53:21.890Z,-3.71
2022-11-17T19:56:09.508Z,-3.67
2022-11-17T19:58:56.975Z,-3.59
2022-11-17T20:01:45.626Z,-3.58
2022-11-17T20:04:33.126Z,-3.56
2022-11-17T20:07:20.527Z,-3.57
2022-11-17T20:10:08.108Z,-3.58
2022-11-17T20:12:55.517Z,-3.54
2022-11-17T20:15:42.963Z,-3.54
2022-11-17T20:18:30.716Z,-3.55
2022-11-17T20:21:18.356Z,-3.54
2022-11-17T20:24:05.809Z,-3.50
2022-11-17T20:26:53.219Z,-3.47
2022-11-17T20:29:40.568Z,-3.46
2022-11-17T20:32:31.626Z,-3.52
2022-11-17T20:35:19.252Z,-3.55
2022-11-17T20:38:07.323Z,-3.56
2022-11-17T20:40:57.637Z,-3.55
2022-11-17T20:43:47.343Z,-3.59
2022-11-17T20:46:34.679Z,-3.58
2022-11-17T20:49:22.370Z,-3.55
2022-11-17T20:52:13.307Z,-3.50
2022-11-17T20:55:01.028Z,-3.48
2022-11-17T20:57:48.625Z,-3.48
2022-11-17T21:00:36.072Z,-3.49
2022-11-17T21:03:24.203Z,-3.46
2022-11-17T21:06:11.906Z,-3.40
2022-11-17T21:08:59.290Z,-3.41
2022-11-17T21:11:58.728Z,-3.48
2022-11-17T21:14:46.152Z,-3.54
2022-11-17T21:17:52.388Z,-3.62
2022-11-17T21:20:39.848Z,-3.63
2022-11-17T21:23:27.932Z,-3.61
2022-11-17T21:26:17.184Z,-3.61
2022-11-17T21:29:06.787Z,-3.61
2022-11-17T21:32:04.427Z,-3.63
2022-11-17T21:34:51.866Z,-3.63
2022-11-17T21:37:39.196Z,-3.67
2022-11-17T21:40:26.610Z,-3.66
2022-11-17T21:43:14.012Z,-3.59
2022-11-17T21:46:05.472Z,-3.60
2022-11-17T21:48:54.989Z,-3.64
2022-11-17T21:51:42.516Z,-3.63
2022-11-17T21:54:29.856Z,-3.61
2022-11-17T21:57:17.282Z,-3.65
2022-11-17T22:00:05.884Z,-3.59
2022-11-17T22:02:53.278Z,-3.56
2022-11-17T22:05:40.636Z,-3.57
2022-11-17T22:08:27.988Z,-3.57
2022-11-17T22:11:16.619Z,-3.61
2022-11-17T22:14:05.612Z,-3.61
2022-11-17T22:16:53.607Z,-3.62
2022-11-17T22:19:41.010Z,-3.65
2022-11-17T22:22:28.363Z,-3.65
2022-11-17T22:25:42.948Z,-3.63
2022-11-17T22:28:23.730Z,-3.69
2022-11-17T22:31:11.076Z,-3.71
2022-11-17T22:33:58.593Z,-3.73
2022-11-17T22:36:46.107Z,-3.76
2022-11-17T22:39:33.582Z,-3.77
2022-11-17T22:42:20.959Z,-3.78
2022-11-17T22:45:08.475Z,-3.76
2022-11-17T22:47:55.834Z,-3.78
2022-11-17T22:50:43.213Z,-3.79
2022-11-17T22:53:31.837Z,-3.85
2022-11-17T22:56:19.129Z,-3.92
2022-11-17T22:59:06.608Z,-3.96
2022-11-17T23:01:54.085Z,-3.99
2022-11-17T23:04:41.461Z,-3.93
2022-11-17T23:07:28.989Z,-3.87
2022-11-17T23:10:16.562Z,-3.83
2022-11-17T23:13:04.245Z,-3.78
2022-11-17T23:15:51.639Z,-3.77
2022-11-17T23:18:39.095Z,-3.80
2022-11-17T23:21:26.491Z,-3.78
2022-11-17T23:24:14.828Z,-3.77
2022-11-17T23:27:02.268Z,-3.77
2022-11-17T23:29:49.987Z,-3.75
2022-11-17T23:32:37.375Z,-3.76
2022-11-17T23:35:24.849Z,-3.76
2022-11-17T23:38:12.238Z,-3.80
2022-11-17T23:41:00.462Z,-3.86
2022-11-17T23:43:51.562Z,-3.86
2022-11-17T23:46:39.009Z,-3.86
2022-11-17T23:49:26.445Z,-3.90
2022-11-17T23:52:13.832Z,-3.92
2022-11-17T23:55:01.376Z,-3.95
2022-11-17T23:57:53.149Z,-3.97
